Time;durP1;ratioP1;P1;durP2;ratioP2;P2;SDS_P1;SDS_P2;PMS_P1;PMS_P2;Temp;Humidity;BMP_temperature;BMP_pressure;BME280_temperature;BME280_humidity;BME280_pressure;Samples;Min_cycle;Max_cycle;Signal;HPM_P1;HPM_P2
2022/01/27 00:00:49;;;;;;;37.05;15.60;;;;;;;;;;5047977;28;20057;-72
2022/01/27 00:03:24;;;;;;;33.90;14.98;;;;;;;;;;5037798;28;20037;-73
2022/01/27 00:05:57;;;;;;;33.22;15.50;;;;;;;;;;5065741;28;20052;-72
2022/01/27 00:08:29;;;;;;;34.97;15.68;;;;;;;;;;5053934;28;20041;-72
2022/01/27 00:11:01;;;;;;;33.08;15.10;;;;;;;;;;5047402;28;20456;-72
2022/01/27 00:13:31;;;;;;;31.67;15.82;;;;;;;;;;5037316;28;20083;-72
2022/01/27 00:16:13;;;;;;;33.97;16.60;;;;;;;;;;5031772;28;20044;-72
2022/01/27 00:18:39;;;;;;;34.17;15.68;;;;;;;;;;5042649;28;20045;-73
2022/01/27 00:21:05;;;;;;;40.08;17.10;;;;;;;;;;5030172;28;20045;-72
2022/01/27 00:23:31;;;;;;;34.97;17.17;;;;;;;;;;5035009;28;20119;-72
2022/01/27 00:25:57;;;;;;;35.88;16.08;;;;;;;;;;5047536;28;20045;-72
2022/01/27 00:28:23;;;;;;;35.35;17.10;;;;;;;;;;5044189;28;20413;-72
2022/01/27 00:30:49;;;;;;;36.92;16.63;;;;;;;;;;5030912;28;20076;-72
2022/01/27 00:33:15;;;;;;;35.75;16.05;;;;;;;;;;5034995;28;20048;-73
2022/01/27 00:35:41;;;;;;;32.05;16.60;;;;;;;;;;5051605;28;20049;-72
2022/01/27 00:38:07;;;;;;;34.38;16.55;;;;;;;;;;5046377;28;20135;-72
2022/01/27 00:40:33;;;;;;;36.75;15.35;;;;;;;;;;5033690;28;20045;-72
2022/01/27 00:42:59;;;;;;;37.60;17.95;;;;;;;;;;5030161;28;20506;-73
2022/01/27 00:45:28;;;;;;;40.58;16.35;;;;;;;;;;5029912;28;20046;-73
2022/01/27 00:47:54;;;;;;;38.47;15.32;;;;;;;;;;5030061;28;20064;-72
2022/01/27 00:50:20;;;;;;;38.40;16.58;;;;;;;;;;5044412;28;20060;-72
2022/01/27 00:52:53;;;;;;;32.40;15.68;;;;;;;;;;5049062;28;20092;-72
2022/01/27 00:55:21;;;;;;;34.33;16.15;;;;;;;;;;5050692;28;20059;-72
2022/01/27 01:00:22;;;;;;;38.38;16.83;;;;;;;;;;5048152;28;20123;-73
2022/01/27 01:02:54;;;;;;;35.78;16.58;;;;;;;;;;5048977;28;20068;-72
2022/01/27 01:08:40;;;;;;;39.20;17.48;;;;;;;;;;5042452;28;20168;-72
2022/01/27 01:16:05;;;;;;;33.83;17.92;;;;;;;;;;5065604;28;20065;-72
2022/01/27 01:18:46;;;;;;;41.58;18.02;;;;;;;;;;5054378;28;20132;-73
2022/01/27 01:32:47;;;;;;;37.83;16.77;;;;;;;;;;5054316;28;20045;-73
2022/01/27 01:35:13;;;;;;;44.10;17.23;;;;;;;;;;5055223;28;20455;-73
2022/01/27 01:37:41;;;;;;;39.55;16.48;;;;;;;;;;5032882;28;20140;-73
2022/01/27 01:40:09;;;;;;;31.95;17.20;;;;;;;;;;5034548;28;20041;-72
2022/01/27 01:42:35;;;;;;;34.20;17.02;;;;;;;;;;5033787;28;20111;-72
2022/01/27 01:45:02;;;;;;;35.78;17.58;;;;;;;;;;5039365;28;20046;-73
2022/01/27 01:47:28;;;;;;;29.60;15.20;;;;;;;;;;5032317;28;20213;-72
2022/01/27 01:49:54;;;;;;;38.63;17.05;;;;;;;;;;5046891;28;20163;-72
2022/01/27 01:52:20;;;;;;;35.30;18.40;;;;;;;;;;5045057;28;20052;-72
2022/01/27 01:54:46;;;;;;;36.22;16.17;;;;;;;;;;5047312;28;20123;-72
2022/01/27 01:57:12;;;;;;;32.72;16.20;;;;;;;;;;5068188;28;20125;-72
2022/01/27 01:59:38;;;;;;;36.45;17.25;;;;;;;;;;5052642;28;20103;-72
2022/01/27 02:02:04;;;;;;;36.90;17.33;;;;;;;;;;5034000;28;20057;-72
2022/01/27 02:04:30;;;;;;;33.20;17.25;;;;;;;;;;5041434;28;20041;-73
2022/01/27 02:07:02;;;;;;;33.63;17.33;;;;;;;;;;5052784;28;20699;-72
2022/01/27 02:20:09;;;;;;;35.25;17.40;;;;;;;;;;5051993;28;20493;-72
2022/01/27 02:22:35;;;;;;;38.50;18.55;;;;;;;;;;5059190;28;20045;-72
2022/01/27 02:25:02;;;;;;;37.00;19.45;;;;;;;;;;5040775;28;20049;-72
2022/01/27 02:27:28;;;;;;;40.38;17.95;;;;;;;;;;5041501;28;20133;-72
2022/01/27 02:29:54;;;;;;;37.17;18.75;;;;;;;;;;5031020;28;20041;-72
2022/01/27 02:32:22;;;;;;;36.25;17.95;;;;;;;;;;5048490;28;20049;-72
2022/01/27 02:34:48;;;;;;;38.53;18.92;;;;;;;;;;5033305;28;20045;-72
2022/01/27 02:37:14;;;;;;;40.50;19.17;;;;;;;;;;5032362;28;20080;-72
2022/01/27 02:39:40;;;;;;;38.38;17.95;;;;;;;;;;5048843;28;20053;-72
2022/01/27 02:42:10;;;;;;;41.83;19.15;;;;;;;;;;5045853;28;20618;-72
2022/01/27 02:44:45;;;;;;;35.17;18.73;;;;;;;;;;5037807;28;20117;-72
2022/01/27 02:47:15;;;;;;;37.60;18.55;;;;;;;;;;5055000;28;20454;-72
2022/01/27 02:49:41;;;;;;;42.35;19.77;;;;;;;;;;5038104;28;20207;-72
2022/01/27 02:52:08;;;;;;;35.88;18.75;;;;;;;;;;5047757;28;20049;-73
2022/01/27 02:54:34;;;;;;;34.17;17.88;;;;;;;;;;5054542;28;20504;-72
2022/01/27 02:57:00;;;;;;;36.60;19.30;;;;;;;;;;5035512;28;20129;-72
2022/01/27 02:59:26;;;;;;;36.88;19.40;;;;;;;;;;5050998;28;20537;-73
2022/01/27 03:01:52;;;;;;;42.92;18.50;;;;;;;;;;5052162;28;20052;-72
2022/01/27 03:04:19;;;;;;;44.63;20.35;;;;;;;;;;5050358;28;20477;-72
2022/01/27 03:06:46;;;;;;;42.83;20.33;;;;;;;;;;5067298;28;20049;-72
2022/01/27 03:09:12;;;;;;;41.17;19.83;;;;;;;;;;5051101;28;20060;-72
2022/01/27 03:11:43;;;;;;;42.85;19.65;;;;;;;;;;5033705;28;20052;-72
2022/01/27 03:14:09;;;;;;;40.38;19.45;;;;;;;;;;5050387;28;20090;-73
2022/01/27 03:16:35;;;;;;;43.35;20.58;;;;;;;;;;5049028;28;20124;-72
2022/01/27 03:19:01;;;;;;;39.17;18.67;;;;;;;;;;5030947;28;20055;-72
2022/01/27 03:21:28;;;;;;;36.40;19.17;;;;;;;;;;5040979;28;20056;-72
2022/01/27 03:23:54;;;;;;;37.60;17.85;;;;;;;;;;5048145;28;20675;-72
2022/01/27 03:26:21;;;;;;;38.63;18.35;;;;;;;;;;5031674;28;20064;-72
2022/01/27 03:28:47;;;;;;;41.42;20.58;;;;;;;;;;5047544;28;20088;-72
2022/01/27 03:31:16;;;;;;;37.55;19.27;;;;;;;;;;5047318;28;20045;-72
2022/01/27 03:33:43;;;;;;;41.25;19.52;;;;;;;;;;5031860;28;20123;-73
2022/01/27 03:36:09;;;;;;;41.90;19.83;;;;;;;;;;5047097;28;20049;-72
2022/01/27 03:38:35;;;;;;;34.78;19.05;;;;;;;;;;5044360;28;20476;-72
2022/01/27 03:41:06;;;;;;;36.70;19.10;;;;;;;;;;5030166;28;20103;-72
2022/01/27 03:43:32;;;;;;;45.28;19.80;;;;;;;;;;5032163;28;20390;-72
2022/01/27 03:45:58;;;;;;;39.38;19.60;;;;;;;;;;5048044;28;20060;-72
2022/01/27 03:48:24;;;;;;;39.95;20.02;;;;;;;;;;5032380;28;20060;-72
2022/01/27 03:50:50;;;;;;;35.67;18.52;;;;;;;;;;5066454;28;20051;-72
2022/01/27 03:53:16;;;;;;;45.28;18.38;;;;;;;;;;5049564;28;20049;-73
2022/01/27 03:55:43;;;;;;;43.17;17.95;;;;;;;;;;5046810;28;20037;-72
2022/01/27 03:58:09;;;;;;;38.30;19.17;;;;;;;;;;5030491;28;20426;-72
2022/01/27 04:00:36;;;;;;;39.50;18.92;;;;;;;;;;5035180;28;20053;-72
2022/01/27 04:03:05;;;;;;;37.72;18.25;;;;;;;;;;5050570;28;20052;-72
2022/01/27 04:05:37;;;;;;;39.05;19.65;;;;;;;;;;5045552;28;20739;-73
2022/01/27 04:08:08;;;;;;;43.33;20.95;;;;;;;;;;5066447;28;20190;-72
2022/01/27 04:10:35;;;;;;;36.83;18.98;;;;;;;;;;5042304;28;20084;-72
2022/01/27 04:13:01;;;;;;;39.15;18.42;;;;;;;;;;5036728;28;20041;-73
2022/01/27 04:15:27;;;;;;;43.15;18.50;;;;;;;;;;5047050;28;20045;-72
2022/01/27 04:17:54;;;;;;;40.95;18.55;;;;;;;;;;5065951;28;20048;-72
2022/01/27 04:20:20;;;;;;;36.00;17.42;;;;;;;;;;5049894;28;20063;-72
2022/01/27 04:22:46;;;;;;;38.03;18.70;;;;;;;;;;5049037;28;20598;-73
2022/01/27 04:25:13;;;;;;;41.38;18.05;;;;;;;;;;5048947;28;20084;-72
2022/01/27 04:27:42;;;;;;;38.50;19.50;;;;;;;;;;5039932;28;20053;-72
2022/01/27 04:30:15;;;;;;;39.97;18.88;;;;;;;;;;5048443;28;20051;-72
2022/01/27 04:32:47;;;;;;;41.03;19.83;;;;;;;;;;5039803;28;20059;-72
2022/01/27 04:35:17;;;;;;;43.15;18.55;;;;;;;;;;5036133;28;20045;-72
2022/01/27 04:37:54;;;;;;;40.63;17.63;;;;;;;;;;5046845;28;20514;-72
2022/01/27 04:40:26;;;;;;;42.88;19.00;;;;;;;;;;5046016;28;20077;-72
2022/01/27 04:43:13;;;;;;;40.95;18.05;;;;;;;;;;5048767;28;20052;-72
2022/01/27 04:45:51;;;;;;;42.83;19.30;;;;;;;;;;5049864;28;20049;-72
2022/01/27 04:48:20;;;;;;;42.00;19.38;;;;;;;;;;5041296;28;20051;-72
2022/01/27 04:50:46;;;;;;;36.45;17.75;;;;;;;;;;5028984;28;20060;-72
2022/01/27 04:53:20;;;;;;;41.45;18.27;;;;;;;;;;5060088;28;20443;-72
2022/01/27 04:55:46;;;;;;;37.17;17.70;;;;;;;;;;5074229;28;20056;-72
2022/01/27 04:58:16;;;;;;;39.10;18.38;;;;;;;;;;5061660;28;20128;-72
2022/01/27 05:00:43;;;;;;;43.00;18.55;;;;;;;;;;5052991;28;20057;-72
2022/01/27 05:03:30;;;;;;;40.85;17.67;;;;;;;;;;5054292;28;20037;-72
2022/01/27 05:05:56;;;;;;;45.17;18.38;;;;;;;;;;5049289;28;20045;-72
2022/01/27 05:08:22;;;;;;;37.10;16.67;;;;;;;;;;5041982;28;20048;-72
2022/01/27 05:10:59;;;;;;;39.00;17.63;;;;;;;;;;5050138;28;20382;-72
2022/01/27 05:13:28;;;;;;;40.30;17.17;;;;;;;;;;5034830;28;20488;-72
2022/01/27 05:15:54;;;;;;;35.20;16.60;;;;;;;;;;5048810;28;20107;-72
2022/01/27 05:18:21;;;;;;;36.15;16.50;;;;;;;;;;5049114;28;20057;-72
2022/01/27 05:20:47;;;;;;;35.10;17.25;;;;;;;;;;5034602;28;20049;-72
2022/01/27 05:23:13;;;;;;;43.03;17.77;;;;;;;;;;5050031;28;20045;-72
2022/01/27 05:25:39;;;;;;;46.75;17.92;;;;;;;;;;5049605;28;20042;-72
2022/01/27 05:28:06;;;;;;;39.70;19.23;;;;;;;;;;5050476;28;20099;-72
2022/01/27 05:30:33;;;;;;;43.22;19.25;;;;;;;;;;5049694;28;20084;-72
2022/01/27 05:32:59;;;;;;;43.58;19.80;;;;;;;;;;5052544;28;20049;-72
2022/01/27 05:35:25;;;;;;;43.63;19.88;;;;;;;;;;5040475;28;20049;-72
2022/01/27 05:37:51;;;;;;;44.00;19.13;;;;;;;;;;5050115;28;20496;-72
2022/01/27 05:40:17;;;;;;;51.30;20.15;;;;;;;;;;5033233;28;20052;-72
2022/01/27 05:42:43;;;;;;;44.30;20.63;;;;;;;;;;5049892;28;20068;-72
2022/01/27 05:45:09;;;;;;;54.58;19.35;;;;;;;;;;5066278;28;20086;-72
2022/01/27 05:47:35;;;;;;;42.72;19.55;;;;;;;;;;5052339;28;20136;-72
2022/01/27 05:50:01;;;;;;;43.42;20.27;;;;;;;;;;5041578;28;20045;-72
2022/01/27 05:52:27;;;;;;;49.35;20.35;;;;;;;;;;5033100;28;20075;-72
2022/01/27 05:54:53;;;;;;;53.95;21.38;;;;;;;;;;5049880;28;20045;-72
2022/01/27 05:57:19;;;;;;;47.13;21.10;;;;;;;;;;5068294;28;20103;-72
2022/01/27 05:59:45;;;;;;;47.15;19.38;;;;;;;;;;5048268;28;20045;-72
2022/01/27 06:02:11;;;;;;;52.38;20.88;;;;;;;;;;5038604;28;20063;-72
2022/01/27 06:04:37;;;;;;;53.55;21.60;;;;;;;;;;5034948;28;20121;-72
2022/01/27 06:07:03;;;;;;;49.25;21.17;;;;;;;;;;5051456;28;20060;-72
2022/01/27 06:09:29;;;;;;;44.80;20.60;;;;;;;;;;5047718;28;20119;-72
2022/01/27 06:11:55;;;;;;;40.90;20.17;;;;;;;;;;5042623;28;20483;-72
2022/01/27 06:14:21;;;;;;;56.35;22.63;;;;;;;;;;5047254;28;20053;-72
2022/01/27 06:16:48;;;;;;;51.15;20.65;;;;;;;;;;5052032;28;20049;-72
2022/01/27 06:19:14;;;;;;;52.58;21.15;;;;;;;;;;5053377;28;20052;-72
2022/01/27 06:21:43;;;;;;;47.67;19.75;;;;;;;;;;5043862;28;20063;-72
2022/01/27 06:24:09;;;;;;;43.58;19.65;;;;;;;;;;5056577;28;20076;-71
2022/01/27 06:26:35;;;;;;;42.85;21.10;;;;;;;;;;5048915;28;20064;-71
2022/01/27 06:29:01;;;;;;;49.63;19.40;;;;;;;;;;5060461;28;20049;-72
2022/01/27 06:31:27;;;;;;;47.97;20.02;;;;;;;;;;5046130;28;20057;-72
2022/01/27 06:33:53;;;;;;;46.20;19.92;;;;;;;;;;5049155;28;20153;-72
2022/01/27 06:36:19;;;;;;;49.70;21.50;;;;;;;;;;5046767;28;20128;-71
2022/01/27 06:38:45;;;;;;;50.83;22.08;;;;;;;;;;5050997;28;20049;-72
2022/01/27 06:41:11;;;;;;;43.75;19.38;;;;;;;;;;5045441;28;20063;-72
2022/01/27 06:43:37;;;;;;;49.47;20.13;;;;;;;;;;5043979;28;20392;-72
2022/01/27 06:46:04;;;;;;;46.75;19.40;;;;;;;;;;5045847;28;20037;-72
2022/01/27 06:48:30;;;;;;;46.00;19.98;;;;;;;;;;5046424;28;20130;-72
2022/01/27 06:50:56;;;;;;;38.50;17.33;;;;;;;;;;5063398;28;20084;-73
2022/01/27 06:53:22;;;;;;;39.08;17.80;;;;;;;;;;5051365;28;20053;-73
2022/01/27 06:55:49;;;;;;;40.70;18.60;;;;;;;;;;5049747;28;20158;-73
2022/01/27 06:58:14;;;;;;;42.53;17.65;;;;;;;;;;5036106;28;20050;-73
2022/01/27 07:00:41;;;;;;;39.88;15.93;;;;;;;;;;5047150;28;20053;-74
2022/01/27 07:03:07;;;;;;;32.80;15.30;;;;;;;;;;5051911;28;20049;-73
2022/01/27 07:05:33;;;;;;;45.10;17.10;;;;;;;;;;5051415;28;20128;-74
2022/01/27 07:08:00;;;;;;;35.42;17.20;;;;;;;;;;5052000;28;20045;-73
2022/01/27 07:10:26;;;;;;;48.55;16.80;;;;;;;;;;5038954;28;20052;-74
2022/01/27 07:12:52;;;;;;;32.88;14.80;;;;;;;;;;5066905;28;20141;-74
2022/01/27 07:15:17;;;;;;;34.85;16.13;;;;;;;;;;5048157;28;20103;-76
2022/01/27 07:17:44;;;;;;;40.22;15.70;;;;;;;;;;5050963;28;20041;-74
2022/01/27 07:20:10;;;;;;;35.65;14.32;;;;;;;;;;5047063;28;20049;-74
2022/01/27 07:22:37;;;;;;;39.80;15.55;;;;;;;;;;5032841;28;20045;-76
2022/01/27 07:25:04;;;;;;;40.45;15.57;;;;;;;;;;5037224;28;20098;-73
2022/01/27 07:27:33;;;;;;;36.08;14.65;;;;;;;;;;5050406;28;20044;-73
2022/01/27 07:29:59;;;;;;;35.95;14.73;;;;;;;;;;5043337;28;20052;-73
2022/01/27 07:32:25;;;;;;;35.05;13.75;;;;;;;;;;5049285;28;20053;-74
2022/01/27 07:34:51;;;;;;;35.70;13.68;;;;;;;;;;5064044;28;20496;-74
2022/01/27 07:37:17;;;;;;;35.50;14.73;;;;;;;;;;5046777;28;20087;-73
2022/01/27 07:39:43;;;;;;;34.08;13.95;;;;;;;;;;5033793;28;20065;-73
2022/01/27 07:42:09;;;;;;;29.27;13.30;;;;;;;;;;5050421;28;20098;-73
2022/01/27 07:44:35;;;;;;;33.58;13.82;;;;;;;;;;5048718;28;20475;-73
2022/01/27 07:47:01;;;;;;;26.63;12.52;;;;;;;;;;5050079;28;20542;-73
2022/01/27 07:49:28;;;;;;;28.67;12.70;;;;;;;;;;5066175;28;20048;-73
2022/01/27 07:51:55;;;;;;;32.33;12.52;;;;;;;;;;5050509;28;20535;-73
2022/01/27 07:54:21;;;;;;;31.58;14.40;;;;;;;;;;5047834;28;20128;-73
2022/01/27 07:56:47;;;;;;;33.10;12.65;;;;;;;;;;5048642;28;20049;-75
2022/01/27 07:59:13;;;;;;;26.75;12.15;;;;;;;;;;5035272;28;20136;-75
2022/01/27 08:01:39;;;;;;;30.55;12.57;;;;;;;;;;5057175;28;20045;-75
2022/01/27 08:04:05;;;;;;;29.27;12.25;;;;;;;;;;5050414;28;20381;-75
2022/01/27 08:06:31;;;;;;;30.63;14.43;;;;;;;;;;5035362;28;20060;-75
2022/01/27 08:08:57;;;;;;;38.13;14.05;;;;;;;;;;5049554;28;20088;-72
2022/01/27 08:11:23;;;;;;;34.75;14.00;;;;;;;;;;5044362;28;20057;-72
2022/01/27 08:13:49;;;;;;;31.42;13.43;;;;;;;;;;5044509;28;20097;-71
2022/01/27 08:16:15;;;;;;;36.00;13.93;;;;;;;;;;5048254;28;20124;-71
2022/01/27 08:18:41;;;;;;;36.17;15.75;;;;;;;;;;5034592;28;20045;-71
2022/01/27 08:21:07;;;;;;;43.30;15.18;;;;;;;;;;5044156;28;20045;-71
2022/01/27 08:23:33;;;;;;;32.55;13.05;;;;;;;;;;5032015;28;20053;-71
2022/01/27 08:26:05;;;;;;;32.80;12.43;;;;;;;;;;5045953;28;20102;-71
2022/01/27 08:28:57;;;;;;;32.80;12.38;;;;;;;;;;5030398;28;20412;-71
2022/01/27 08:31:22;;;;;;;35.35;14.55;;;;;;;;;;5048933;28;20442;-71
2022/01/27 08:33:48;;;;;;;50.72;15.63;;;;;;;;;;5033863;28;20147;-71
2022/01/27 08:36:15;;;;;;;38.40;15.35;;;;;;;;;;5029205;28;20509;-71
2022/01/27 08:38:43;;;;;;;35.78;13.35;;;;;;;;;;5037258;28;20392;-72
2022/01/27 08:41:09;;;;;;;36.33;15.63;;;;;;;;;;5046003;28;20045;-72
2022/01/27 08:43:35;;;;;;;35.17;13.82;;;;;;;;;;5029215;28;20138;-72
2022/01/27 08:46:01;;;;;;;32.65;14.20;;;;;;;;;;5033806;28;20099;-74
2022/01/27 08:48:28;;;;;;;46.92;13.05;;;;;;;;;;5045924;28;20120;-74
2022/01/27 08:51:01;;;;;;;36.75;12.30;;;;;;;;;;5058595;28;20080;-74
2022/01/27 08:53:29;;;;;;;32.08;11.00;;;;;;;;;;5050548;28;20444;-74
2022/01/27 08:55:55;;;;;;;29.92;10.35;;;;;;;;;;5039865;28;20456;-73
2022/01/27 08:58:23;;;;;;;29.00;10.43;;;;;;;;;;5046312;28;20120;-74
2022/01/27 09:00:49;;;;;;;33.83;10.95;;;;;;;;;;5040915;28;20083;-73
2022/01/27 09:03:15;;;;;;;26.38;10.75;;;;;;;;;;5030038;28;20439;-74
2022/01/27 09:05:41;;;;;;;30.00;10.15;;;;;;;;;;5029638;28;20049;-74
2022/01/27 09:08:07;;;;;;;28.70;9.80;;;;;;;;;;5033937;28;20052;-74
2022/01/27 09:10:33;;;;;;;27.92;9.38;;;;;;;;;;5031290;28;20053;-74
2022/01/27 09:13:01;;;;;;;30.50;9.02;;;;;;;;;;5050685;28;20053;-74
2022/01/27 09:15:27;;;;;;;25.33;9.73;;;;;;;;;;5033720;28;20057;-74
2022/01/27 09:17:53;;;;;;;23.13;7.88;;;;;;;;;;5049035;28;20519;-74
2022/01/27 09:20:19;;;;;;;22.65;8.93;;;;;;;;;;5043440;28;20132;-74
2022/01/27 09:22:45;;;;;;;30.60;8.23;;;;;;;;;;5032225;28;20128;-74
2022/01/27 09:25:19;;;;;;;31.95;9.43;;;;;;;;;;5031715;28;20045;-74
2022/01/27 09:27:46;;;;;;;21.05;8.38;;;;;;;;;;5043849;28;20075;-74
2022/01/27 09:30:14;;;;;;;24.95;8.98;;;;;;;;;;5042041;28;20049;-74
2022/01/27 09:32:40;;;;;;;20.67;8.18;;;;;;;;;;5033844;28;20052;-75
2022/01/27 09:35:06;;;;;;;26.95;8.05;;;;;;;;;;5032578;28;20357;-72
2022/01/27 09:37:32;;;;;;;26.17;7.60;;;;;;;;;;5041862;28;20053;-72
2022/01/27 09:39:58;;;;;;;25.08;7.88;;;;;;;;;;5039242;28;20053;-72
2022/01/27 09:42:27;;;;;;;24.80;7.32;;;;;;;;;;5042770;28;20754;-72
2022/01/27 09:44:53;;;;;;;21.60;7.22;;;;;;;;;;5043153;28;20065;-72
2022/01/27 09:47:20;;;;;;;27.27;7.38;;;;;;;;;;5039312;28;20044;-72
2022/01/27 09:49:53;;;;;;;23.83;7.68;;;;;;;;;;5061911;28;20048;-72
2022/01/27 09:52:20;;;;;;;25.42;8.38;;;;;;;;;;5052484;28;20050;-72
2022/01/27 09:54:46;;;;;;;21.70;6.55;;;;;;;;;;5048979;28;20491;-72
2022/01/27 09:57:17;;;;;;;27.33;7.65;;;;;;;;;;5051290;28;20047;-72
2022/01/27 09:59:44;;;;;;;17.65;6.32;;;;;;;;;;5048504;28;20388;-72
2022/01/27 10:02:10;;;;;;;24.20;6.63;;;;;;;;;;5049531;28;20069;-72
2022/01/27 10:05:07;;;;;;;19.25;5.90;;;;;;;;;;5036980;28;20481;-72
2022/01/27 10:07:41;;;;;;;25.02;6.07;;;;;;;;;;5044658;28;20175;-73
2022/01/27 10:10:08;;;;;;;22.48;6.97;;;;;;;;;;5032932;28;20501;-72
2022/01/27 10:12:39;;;;;;;18.35;5.20;;;;;;;;;;5032017;28;20091;-72
2022/01/27 10:15:09;;;;;;;26.05;5.97;;;;;;;;;;5038456;28;20041;-73
2022/01/27 10:17:38;;;;;;;19.20;5.18;;;;;;;;;;5032199;28;20052;-72
2022/01/27 10:20:16;;;;;;;16.38;5.00;;;;;;;;;;5035734;28;20044;-72
2022/01/27 10:22:42;;;;;;;20.52;5.65;;;;;;;;;;5044070;28;20048;-72
2022/01/27 10:25:10;;;;;;;25.45;5.28;;;;;;;;;;5038107;28;20681;-71
2022/01/27 10:30:50;;;;;;;23.55;5.80;;;;;;;;;;5049070;28;20056;-71
2022/01/27 10:32:55;;;;;;;17.98;4.55;;;;;;;;;;5051862;28;20050;-71
2022/01/27 10:35:23;;;;;;;26.25;5.90;;;;;;;;;;5031487;28;20041;-71
2022/01/27 10:38:03;;;;;;;22.45;5.55;;;;;;;;;;5049934;28;20054;-70
2022/01/27 10:40:34;;;;;;;18.80;5.53;;;;;;;;;;5040286;28;20489;-71
2022/01/27 10:43:09;;;;;;;20.65;4.97;;;;;;;;;;5033409;28;20045;-70
2022/01/27 10:45:40;;;;;;;18.05;5.13;;;;;;;;;;5037161;28;20056;-70
2022/01/27 10:48:14;;;;;;;26.48;5.07;;;;;;;;;;5058539;28;20155;-71
2022/01/27 10:50:49;;;;;;;21.10;5.22;;;;;;;;;;5047192;28;20049;-71
2022/01/27 10:53:17;;;;;;;24.25;5.28;;;;;;;;;;5050055;28;20132;-70
2022/01/27 10:55:43;;;;;;;16.30;5.05;;;;;;;;;;5054231;28;20047;-70
2022/01/27 10:58:27;;;;;;;14.93;4.72;;;;;;;;;;5046764;28;20044;-70
2022/01/27 11:00:58;;;;;;;20.15;6.35;;;;;;;;;;5066822;28;20064;-70
2022/01/27 11:03:24;;;;;;;15.00;4.78;;;;;;;;;;5066528;28;20057;-70
2022/01/27 11:05:51;;;;;;;18.35;4.38;;;;;;;;;;5051343;28;20047;-70
2022/01/27 11:08:20;;;;;;;16.75;4.80;;;;;;;;;;5048802;28;20477;-70
2022/01/27 11:10:49;;;;;;;17.30;4.78;;;;;;;;;;5050157;28;20064;-70
2022/01/27 11:13:16;;;;;;;20.70;4.93;;;;;;;;;;5040216;28;20477;-70
2022/01/27 11:15:42;;;;;;;15.52;5.82;;;;;;;;;;5038800;28;20045;-70
2022/01/27 11:18:09;;;;;;;16.65;4.50;;;;;;;;;;5050342;28;20472;-70
2022/01/27 11:26:06;;;;;;;19.67;5.13;;;;;;;;;;5043579;28;20052;-71
2022/01/27 11:28:33;;;;;;;28.48;6.10;;;;;;;;;;5046893;28;20061;-71
2022/01/27 11:31:07;;;;;;;16.27;4.50;;;;;;;;;;5050088;28;20048;-71
2022/01/27 11:33:35;;;;;;;16.70;3.60;;;;;;;;;;5049215;28;20045;-72
2022/01/27 11:36:08;;;;;;;20.50;4.35;;;;;;;;;;5049770;28;20041;-72
2022/01/27 11:38:34;;;;;;;15.98;4.05;;;;;;;;;;5053175;28;20396;-73
2022/01/27 11:41:01;;;;;;;19.73;4.05;;;;;;;;;;5047817;28;20060;-72
2022/01/27 11:43:33;;;;;;;23.38;4.95;;;;;;;;;;5046852;28;20052;-72
2022/01/27 11:46:12;;;;;;;18.80;4.45;;;;;;;;;;5044329;28;20112;-72
2022/01/27 11:48:38;;;;;;;14.82;3.90;;;;;;;;;;5044724;28;20045;-72
2022/01/27 11:51:06;;;;;;;16.80;4.70;;;;;;;;;;5043147;28;20049;-72
2022/01/27 11:53:42;;;;;;;21.50;3.67;;;;;;;;;;5033061;28;20121;-71
2022/01/27 11:56:09;;;;;;;16.10;3.65;;;;;;;;;;5035386;28;20059;-72
2022/01/27 11:58:45;;;;;;;18.10;3.53;;;;;;;;;;5039603;28;20061;-73
2022/01/27 12:01:14;;;;;;;17.15;3.65;;;;;;;;;;5060325;28;20484;-73
2022/01/27 12:03:40;;;;;;;18.50;4.07;;;;;;;;;;5043847;28;20095;-72
2022/01/27 12:06:22;;;;;;;18.52;3.85;;;;;;;;;;5046898;28;20055;-72
2022/01/27 12:08:48;;;;;;;20.35;3.78;;;;;;;;;;5035187;28;20049;-72
2022/01/27 12:11:33;;;;;;;15.13;3.17;;;;;;;;;;5065959;28;20056;-72
2022/01/27 12:14:01;;;;;;;18.42;3.53;;;;;;;;;;5038260;28;20476;-72
2022/01/27 12:18:57;;;;;;;20.05;3.17;;;;;;;;;;5038620;28;20052;-73
2022/01/27 12:21:30;;;;;;;18.23;4.47;;;;;;;;;;5038294;28;20045;-72
2022/01/27 12:24:16;;;;;;;13.75;3.28;;;;;;;;;;5042984;28;20045;-72
2022/01/27 12:26:46;;;;;;;24.38;3.03;;;;;;;;;;5031763;28;20057;-72
2022/01/27 12:29:12;;;;;;;18.45;3.45;;;;;;;;;;5033878;28;20057;-72
2022/01/27 12:31:41;;;;;;;13.98;3.25;;;;;;;;;;5035628;28;20056;-72
2022/01/27 12:34:07;;;;;;;23.40;3.28;;;;;;;;;;5033572;28;20091;-72
2022/01/27 12:36:33;;;;;;;18.52;3.08;;;;;;;;;;5034616;28;20591;-73
2022/01/27 12:38:59;;;;;;;17.00;3.47;;;;;;;;;;5038093;28;20404;-72
2022/01/27 12:41:26;;;;;;;25.13;3.25;;;;;;;;;;5032831;28;20049;-73
2022/01/27 12:43:53;;;;;;;16.17;3.00;;;;;;;;;;5038216;28;20106;-75
2022/01/27 12:46:19;;;;;;;16.70;2.72;;;;;;;;;;5031787;28;20516;-73
2022/01/27 12:48:50;;;;;;;22.05;3.53;;;;;;;;;;5035593;28;20105;-77
2022/01/27 12:51:23;;;;;;;21.95;3.03;;;;;;;;;;5037847;28;20042;-76
2022/01/27 12:53:59;;;;;;;17.23;2.70;;;;;;;;;;5040755;28;20049;-75
2022/01/27 12:56:25;;;;;;;19.95;3.38;;;;;;;;;;5040417;28;20037;-76
2022/01/27 12:58:51;;;;;;;17.73;3.65;;;;;;;;;;5038249;28;20049;-76
2022/01/27 13:01:17;;;;;;;21.63;3.50;;;;;;;;;;5036190;28;20072;-76
2022/01/27 13:03:59;;;;;;;22.52;3.40;;;;;;;;;;5035025;28;20049;-76
2022/01/27 13:06:30;;;;;;;19.85;3.25;;;;;;;;;;5050910;28;20079;-76
2022/01/27 13:09:12;;;;;;;19.67;4.10;;;;;;;;;;5057103;28;20045;-76
2022/01/27 13:11:40;;;;;;;19.83;3.00;;;;;;;;;;5037952;28;20128;-76
2022/01/27 13:14:07;;;;;;;22.55;4.57;;;;;;;;;;5035861;28;20099;-76
2022/01/27 13:16:50;;;;;;;21.02;3.95;;;;;;;;;;5035687;28;20132;-74
2022/01/27 13:19:31;;;;;;;22.25;2.90;;;;;;;;;;5034876;28;20095;-73
2022/01/27 13:22:01;;;;;;;22.17;3.55;;;;;;;;;;5037967;28;20085;-71
2022/01/27 13:24:30;;;;;;;18.88;3.42;;;;;;;;;;5035592;28;20084;-71
2022/01/27 13:27:03;;;;;;;15.25;3.17;;;;;;;;;;5035300;28;20493;-70
2022/01/27 13:29:29;;;;;;;18.23;3.05;;;;;;;;;;5041295;28;20055;-71
2022/01/27 13:31:56;;;;;;;20.38;3.65;;;;;;;;;;5038366;28;20057;-71
2022/01/27 13:34:23;;;;;;;18.55;3.22;;;;;;;;;;5033302;28;20142;-71
2022/01/27 13:36:59;;;;;;;18.92;2.72;;;;;;;;;;5042206;28;20372;-71
2022/01/27 13:39:46;;;;;;;14.15;2.97;;;;;;;;;;5041020;28;20053;-71
2022/01/27 13:42:11;;;;;;;25.83;3.35;;;;;;;;;;5043628;28;20079;-71
2022/01/27 13:44:51;;;;;;;12.75;2.38;;;;;;;;;;5040302;28;20053;-71
2022/01/27 13:47:23;;;;;;;20.63;3.47;;;;;;;;;;5036560;28;20194;-71
2022/01/27 13:49:50;;;;;;;22.55;3.38;;;;;;;;;;5034461;28;20508;-70
2022/01/27 13:52:17;;;;;;;21.92;3.13;;;;;;;;;;5042729;28;20045;-71
2022/01/27 13:54:47;;;;;;;18.73;3.60;;;;;;;;;;5062222;28;20053;-71
2022/01/27 13:57:15;;;;;;;17.67;2.90;;;;;;;;;;5036664;28;20044;-71
2022/01/27 13:59:41;;;;;;;20.60;2.58;;;;;;;;;;5041668;28;20045;-71
2022/01/27 14:02:22;;;;;;;10.30;3.05;;;;;;;;;;5037984;28;20512;-71
2022/01/27 14:04:50;;;;;;;14.82;2.05;;;;;;;;;;5036898;28;20041;-70
2022/01/27 14:07:32;;;;;;;18.48;2.88;;;;;;;;;;5041469;28;20381;-70
2022/01/27 14:10:09;;;;;;;18.95;3.22;;;;;;;;;;5055730;28;20057;-72
2022/01/27 14:12:47;;;;;;;17.30;2.83;;;;;;;;;;5039006;28;20484;-70
2022/01/27 14:15:31;;;;;;;20.80;2.40;;;;;;;;;;5038898;28;20527;-70
2022/01/27 14:17:58;;;;;;;20.48;3.65;;;;;;;;;;5038295;28;20045;-70
2022/01/27 14:20:24;;;;;;;14.85;2.42;;;;;;;;;;5032551;28;20080;-71
2022/01/27 14:23:02;;;;;;;15.80;2.90;;;;;;;;;;5033470;28;20485;-72
2022/01/27 14:25:37;;;;;;;18.00;2.70;;;;;;;;;;5045060;28;20480;-72
2022/01/27 14:28:10;;;;;;;12.52;2.47;;;;;;;;;;5043449;28;20053;-72
2022/01/27 14:30:36;;;;;;;22.33;4.10;;;;;;;;;;5040023;28;20126;-74
2022/01/27 14:33:02;;;;;;;22.60;2.60;;;;;;;;;;5051472;28;20489;-75
2022/01/27 14:35:28;;;;;;;18.17;2.85;;;;;;;;;;5030796;28;20037;-74
2022/01/27 14:37:57;;;;;;;13.27;2.15;;;;;;;;;;5057802;28;20049;-74
2022/01/27 14:40:24;;;;;;;17.13;2.45;;;;;;;;;;5049103;28;20496;-74
2022/01/27 14:42:50;;;;;;;16.17;2.20;;;;;;;;;;5034799;28;20049;-75
2022/01/27 14:45:18;;;;;;;21.52;2.97;;;;;;;;;;5052501;28;20128;-75
2022/01/27 14:47:45;;;;;;;10.88;2.10;;;;;;;;;;5036684;28;20049;-74
2022/01/27 14:50:13;;;;;;;18.92;2.80;;;;;;;;;;5038875;28;20554;-74
2022/01/27 14:52:42;;;;;;;21.55;3.25;;;;;;;;;;5036691;28;20180;-75
2022/01/27 14:55:09;;;;;;;20.30;2.85;;;;;;;;;;5051820;28;20484;-75
2022/01/27 14:57:35;;;;;;;16.08;2.53;;;;;;;;;;5034584;28;20590;-75
2022/01/27 15:00:01;;;;;;;18.20;1.95;;;;;;;;;;5045456;28;20077;-75
2022/01/27 15:02:27;;;;;;;18.10;2.72;;;;;;;;;;5053763;28;20056;-75
2022/01/27 15:04:53;;;;;;;18.20;2.85;;;;;;;;;;5032850;28;20049;-74
2022/01/27 15:07:19;;;;;;;21.10;3.78;;;;;;;;;;5038439;28;20048;-75
2022/01/27 15:09:45;;;;;;;22.23;3.22;;;;;;;;;;5044867;28;20143;-74
2022/01/27 15:12:15;;;;;;;21.10;3.13;;;;;;;;;;5039523;28;20057;-74
2022/01/27 15:20:12;;;;;;;;;;;;;;;;;;5035820;28;20049;-74